sensor_id;sensor_type;location;lat;lon;timestamp;P1;durP1;ratioP1;P2;durP2;ratioP2
61017;SDS011;48171;51.550;5.434;2023-02-12T00:00:59;24.08;;;11.25;;
61017;SDS011;48171;51.550;5.434;2023-02-12T00:03:24;24.50;;;12.25;;
61017;SDS011;48171;51.550;5.434;2023-02-12T00:05:50;26.15;;;12.60;;
61017;SDS011;48171;51.550;5.434;2023-02-12T00:08:15;26.73;;;11.75;;
61017;SDS011;48171;51.550;5.434;2023-02-12T00:10:41;26.80;;;11.95;;
61017;SDS011;48171;51.550;5.434;2023-02-12T00:13:08;24.15;;;11.38;;
61017;SDS011;48171;51.550;5.434;2023-02-12T00:15:36;26.08;;;11.52;;
61017;SDS011;48171;51.550;5.434;2023-02-12T00:18:06;23.98;;;11.52;;
61017;SDS011;48171;51.550;5.434;2023-02-12T00:20:31;21.38;;;10.98;;
61017;SDS011;48171;51.550;5.434;2023-02-12T00:22:56;26.90;;;11.23;;
61017;SDS011;48171;51.550;5.434;2023-02-12T00:25:22;24.98;;;10.93;;
61017;SDS011;48171;51.550;5.434;2023-02-12T00:27:47;24.15;;;10.93;;
61017;SDS011;48171;51.550;5.434;2023-02-12T00:30:12;26.58;;;11.45;;
61017;SDS011;48171;51.550;5.434;2023-02-12T00:32:38;26.02;;;11.18;;
61017;SDS011;48171;51.550;5.434;2023-02-12T00:35:04;26.48;;;11.50;;
61017;SDS011;48171;51.550;5.434;2023-02-12T00:37:30;23.98;;;11.70;;
61017;SDS011;48171;51.550;5.434;2023-02-12T00:39:55;23.63;;;11.52;;
61017;SDS011;48171;51.550;5.434;2023-02-12T00:42:21;26.20;;;12.32;;
61017;SDS011;48171;51.550;5.434;2023-02-12T00:44:46;26.27;;;12.70;;
61017;SDS011;48171;51.550;5.434;2023-02-12T00:47:11;24.48;;;11.77;;
61017;SDS011;48171;51.550;5.434;2023-02-12T00:49:37;26.63;;;11.95;;
61017;SDS011;48171;51.550;5.434;2023-02-12T00:52:03;26.58;;;11.75;;
61017;SDS011;48171;51.550;5.434;2023-02-12T00:54:29;24.88;;;11.63;;
61017;SDS011;48171;51.550;5.434;2023-02-12T00:56:56;26.90;;;11.50;;
61017;SDS011;48171;51.550;5.434;2023-02-12T00:59:22;24.27;;;12.32;;
61017;SDS011;48171;51.550;5.434;2023-02-12T01:01:49;25.45;;;11.68;;
61017;SDS011;48171;51.550;5.434;2023-02-12T01:04:14;22.65;;;11.40;;
61017;SDS011;48171;51.550;5.434;2023-02-12T01:06:40;24.25;;;11.10;;
61017;SDS011;48171;51.550;5.434;2023-02-12T01:09:05;29.52;;;12.50;;
61017;SDS011;48171;51.550;5.434;2023-02-12T01:11:31;25.38;;;12.15;;
61017;SDS011;48171;51.550;5.434;2023-02-12T01:13:56;26.83;;;11.90;;
61017;SDS011;48171;51.550;5.434;2023-02-12T01:16:22;27.48;;;12.00;;
61017;SDS011;48171;51.550;5.434;2023-02-12T01:18:49;26.73;;;12.60;;
61017;SDS011;48171;51.550;5.434;2023-02-12T01:21:17;32.13;;;12.98;;
61017;SDS011;48171;51.550;5.434;2023-02-12T01:23:45;27.05;;;12.70;;
61017;SDS011;48171;51.550;5.434;2023-02-12T01:26:11;24.83;;;11.95;;
61017;SDS011;48171;51.550;5.434;2023-02-12T01:28:38;25.25;;;12.45;;
61017;SDS011;48171;51.550;5.434;2023-02-12T01:31:08;27.58;;;11.88;;
61017;SDS011;48171;51.550;5.434;2023-02-12T01:33:38;30.17;;;12.18;;
61017;SDS011;48171;51.550;5.434;2023-02-12T01:36:04;24.25;;;11.70;;
61017;SDS011;48171;51.550;5.434;2023-02-12T01:38:31;23.95;;;11.45;;
61017;SDS011;48171;51.550;5.434;2023-02-12T01:41:16;25.80;;;12.35;;
61017;SDS011;48171;51.550;5.434;2023-02-12T01:43:43;28.23;;;12.43;;
61017;SDS011;48171;51.550;5.434;2023-02-12T01:46:11;26.02;;;12.15;;
61017;SDS011;48171;51.550;5.434;2023-02-12T01:48:38;29.23;;;13.40;;
61017;SDS011;48171;51.550;5.434;2023-02-12T01:51:08;28.60;;;13.10;;
61017;SDS011;48171;51.550;5.434;2023-02-12T01:53:39;29.85;;;13.82;;
61017;SDS011;48171;51.550;5.434;2023-02-12T01:56:08;32.05;;;13.18;;
61017;SDS011;48171;51.550;5.434;2023-02-12T01:58:37;28.73;;;13.77;;
61017;SDS011;48171;51.550;5.434;2023-02-12T02:01:05;25.67;;;12.18;;
61017;SDS011;48171;51.550;5.434;2023-02-12T02:03:33;30.10;;;13.65;;
61017;SDS011;48171;51.550;5.434;2023-02-12T02:06:03;31.02;;;14.13;;
61017;SDS011;48171;51.550;5.434;2023-02-12T02:08:33;27.17;;;12.73;;
61017;SDS011;48171;51.550;5.434;2023-02-12T02:11:00;29.48;;;13.00;;
61017;SDS011;48171;51.550;5.434;2023-02-12T02:13:25;30.48;;;13.50;;
61017;SDS011;48171;51.550;5.434;2023-02-12T02:16:12;30.90;;;12.85;;
61017;SDS011;48171;51.550;5.434;2023-02-12T02:21:35;28.35;;;12.93;;
61017;SDS011;48171;51.550;5.434;2023-02-12T02:29:44;29.83;;;13.10;;
61017;SDS011;48171;51.550;5.434;2023-02-12T02:32:38;29.83;;;13.35;;
61017;SDS011;48171;51.550;5.434;2023-02-12T02:40:35;22.60;;;11.45;;
61017;SDS011;48171;51.550;5.434;2023-02-12T02:43:06;30.92;;;13.27;;
61017;SDS011;48171;51.550;5.434;2023-02-12T02:45:40;28.25;;;13.23;;
61017;SDS011;48171;51.550;5.434;2023-02-12T02:48:13;26.27;;;11.90;;
61017;SDS011;48171;51.550;5.434;2023-02-12T02:50:42;31.48;;;12.10;;
61017;SDS011;48171;51.550;5.434;2023-02-12T02:53:18;25.80;;;12.65;;
61017;SDS011;48171;51.550;5.434;2023-02-12T02:55:46;28.27;;;13.35;;
61017;SDS011;48171;51.550;5.434;2023-02-12T02:58:16;27.83;;;13.18;;
61017;SDS011;48171;51.550;5.434;2023-02-12T03:00:48;33.55;;;13.45;;
61017;SDS011;48171;51.550;5.434;2023-02-12T03:03:22;28.63;;;12.70;;
61017;SDS011;48171;51.550;5.434;2023-02-12T03:06:04;28.15;;;13.82;;
61017;SDS011;48171;51.550;5.434;2023-02-12T03:08:38;29.42;;;13.13;;
61017;SDS011;48171;51.550;5.434;2023-02-12T03:11:08;28.98;;;13.23;;
61017;SDS011;48171;51.550;5.434;2023-02-12T03:13:49;30.80;;;13.30;;
61017;SDS011;48171;51.550;5.434;2023-02-12T03:16:26;27.88;;;13.32;;
61017;SDS011;48171;51.550;5.434;2023-02-12T03:19:02;27.75;;;12.88;;
61017;SDS011;48171;51.550;5.434;2023-02-12T03:21:40;30.38;;;12.80;;
61017;SDS011;48171;51.550;5.434;2023-02-12T03:24:28;30.80;;;13.27;;
61017;SDS011;48171;51.550;5.434;2023-02-12T03:29:37;29.40;;;13.88;;
61017;SDS011;48171;51.550;5.434;2023-02-12T03:41:08;25.98;;;12.02;;
61017;SDS011;48171;51.550;5.434;2023-02-12T03:43:48;28.08;;;13.02;;
61017;SDS011;48171;51.550;5.434;2023-02-12T03:46:19;26.83;;;12.77;;
61017;SDS011;48171;51.550;5.434;2023-02-12T03:48:53;28.10;;;12.85;;
61017;SDS011;48171;51.550;5.434;2023-02-12T03:53:49;35.70;;;13.52;;
61017;SDS011;48171;51.550;5.434;2023-02-12T03:56:23;31.15;;;14.57;;
61017;SDS011;48171;51.550;5.434;2023-02-12T03:58:53;30.70;;;14.43;;
61017;SDS011;48171;51.550;5.434;2023-02-12T04:01:18;29.77;;;14.18;;
61017;SDS011;48171;51.550;5.434;2023-02-12T04:03:44;27.80;;;12.95;;
61017;SDS011;48171;51.550;5.434;2023-02-12T04:06:20;30.17;;;13.20;;
61017;SDS011;48171;51.550;5.434;2023-02-12T04:08:47;31.05;;;14.20;;
61017;SDS011;48171;51.550;5.434;2023-02-12T04:16:39;29.65;;;13.73;;
61017;SDS011;48171;51.550;5.434;2023-02-12T04:19:09;34.15;;;14.52;;
61017;SDS011;48171;51.550;5.434;2023-02-12T04:24:18;29.10;;;13.32;;
61017;SDS011;48171;51.550;5.434;2023-02-12T04:26:58;29.42;;;13.63;;
61017;SDS011;48171;51.550;5.434;2023-02-12T04:29:40;27.42;;;13.20;;
61017;SDS011;48171;51.550;5.434;2023-02-12T04:32:11;27.88;;;13.35;;
61017;SDS011;48171;51.550;5.434;2023-02-12T04:37:35;27.17;;;14.13;;
61017;SDS011;48171;51.550;5.434;2023-02-12T04:40:05;31.40;;;13.50;;
61017;SDS011;48171;51.550;5.434;2023-02-12T04:42:40;32.03;;;13.10;;
61017;SDS011;48171;51.550;5.434;2023-02-12T04:45:14;30.60;;;14.18;;
61017;SDS011;48171;51.550;5.434;2023-02-12T04:47:48;28.10;;;13.02;;
61017;SDS011;48171;51.550;5.434;2023-02-12T04:50:14;30.65;;;13.60;;
61017;SDS011;48171;51.550;5.434;2023-02-12T04:52:39;31.92;;;14.05;;
61017;SDS011;48171;51.550;5.434;2023-02-12T04:55:04;33.08;;;14.13;;
61017;SDS011;48171;51.550;5.434;2023-02-12T04:57:30;24.25;;;12.73;;
61017;SDS011;48171;51.550;5.434;2023-02-12T04:59:55;30.58;;;12.68;;
61017;SDS011;48171;51.550;5.434;2023-02-12T05:02:20;31.00;;;13.68;;
61017;SDS011;48171;51.550;5.434;2023-02-12T05:04:47;34.10;;;13.82;;
61017;SDS011;48171;51.550;5.434;2023-02-12T05:07:13;33.03;;;13.88;;
61017;SDS011;48171;51.550;5.434;2023-02-12T05:09:38;32.47;;;13.20;;
61017;SDS011;48171;51.550;5.434;2023-02-12T05:12:04;31.08;;;13.63;;
61017;SDS011;48171;51.550;5.434;2023-02-12T05:14:29;29.48;;;12.90;;
61017;SDS011;48171;51.550;5.434;2023-02-12T05:16:55;31.73;;;14.15;;
61017;SDS011;48171;51.550;5.434;2023-02-12T05:19:20;33.33;;;13.32;;
61017;SDS011;48171;51.550;5.434;2023-02-12T05:21:45;30.92;;;13.52;;
61017;SDS011;48171;51.550;5.434;2023-02-12T05:24:14;30.83;;;14.20;;
61017;SDS011;48171;51.550;5.434;2023-02-12T05:26:40;32.95;;;13.20;;
61017;SDS011;48171;51.550;5.434;2023-02-12T05:29:05;30.10;;;13.43;;
61017;SDS011;48171;51.550;5.434;2023-02-12T05:31:31;29.10;;;13.48;;
61017;SDS011;48171;51.550;5.434;2023-02-12T05:33:56;33.05;;;13.52;;
61017;SDS011;48171;51.550;5.434;2023-02-12T05:36:22;30.83;;;13.40;;
61017;SDS011;48171;51.550;5.434;2023-02-12T05:38:49;29.15;;;13.52;;
61017;SDS011;48171;51.550;5.434;2023-02-12T05:41:19;30.38;;;13.48;;
61017;SDS011;48171;51.550;5.434;2023-02-12T05:43:46;31.13;;;13.60;;
61017;SDS011;48171;51.550;5.434;2023-02-12T05:46:13;29.10;;;12.32;;
61017;SDS011;48171;51.550;5.434;2023-02-12T05:48:38;33.70;;;13.85;;
61017;SDS011;48171;51.550;5.434;2023-02-12T05:53:34;36.40;;;14.52;;
61017;SDS011;48171;51.550;5.434;2023-02-12T05:56:20;31.65;;;13.43;;
61017;SDS011;48171;51.550;5.434;2023-02-12T05:58:49;30.48;;;14.23;;
61017;SDS011;48171;51.550;5.434;2023-02-12T06:01:21;33.00;;;14.52;;
61017;SDS011;48171;51.550;5.434;2023-02-12T06:03:49;32.08;;;14.02;;
61017;SDS011;48171;51.550;5.434;2023-02-12T06:06:14;29.35;;;13.88;;
61017;SDS011;48171;51.550;5.434;2023-02-12T06:08:40;37.10;;;14.25;;
61017;SDS011;48171;51.550;5.434;2023-02-12T06:11:06;31.58;;;14.27;;
61017;SDS011;48171;51.550;5.434;2023-02-12T06:13:34;33.53;;;14.18;;
61017;SDS011;48171;51.550;5.434;2023-02-12T06:15:59;39.28;;;14.90;;
61017;SDS011;48171;51.550;5.434;2023-02-12T06:18:25;35.38;;;14.65;;
61017;SDS011;48171;51.550;5.434;2023-02-12T06:20:51;31.08;;;14.13;;
61017;SDS011;48171;51.550;5.434;2023-02-12T06:23:18;30.95;;;14.63;;
61017;SDS011;48171;51.550;5.434;2023-02-12T06:25:44;34.75;;;14.70;;
61017;SDS011;48171;51.550;5.434;2023-02-12T06:28:09;31.20;;;14.07;;
61017;SDS011;48171;51.550;5.434;2023-02-12T06:30:34;29.65;;;13.07;;
61017;SDS011;48171;51.550;5.434;2023-02-12T06:33:00;36.08;;;15.45;;
61017;SDS011;48171;51.550;5.434;2023-02-12T06:35:25;34.42;;;13.90;;
61017;SDS011;48171;51.550;5.434;2023-02-12T06:37:51;32.60;;;14.57;;
61017;SDS011;48171;51.550;5.434;2023-02-12T06:40:16;34.83;;;14.13;;
61017;SDS011;48171;51.550;5.434;2023-02-12T06:42:42;29.88;;;13.73;;
61017;SDS011;48171;51.550;5.434;2023-02-12T06:45:07;31.52;;;13.52;;
61017;SDS011;48171;51.550;5.434;2023-02-12T06:47:32;31.23;;;13.45;;
61017;SDS011;48171;51.550;5.434;2023-02-12T06:49:58;30.30;;;13.30;;
61017;SDS011;48171;51.550;5.434;2023-02-12T06:52:23;29.27;;;13.05;;
61017;SDS011;48171;51.550;5.434;2023-02-12T06:54:48;33.95;;;13.68;;
61017;SDS011;48171;51.550;5.434;2023-02-12T06:57:14;30.63;;;13.75;;
61017;SDS011;48171;51.550;5.434;2023-02-12T06:59:39;32.38;;;13.98;;
61017;SDS011;48171;51.550;5.434;2023-02-12T07:02:04;31.73;;;14.02;;
61017;SDS011;48171;51.550;5.434;2023-02-12T07:04:30;31.60;;;13.90;;
61017;SDS011;48171;51.550;5.434;2023-02-12T07:06:55;31.17;;;14.20;;
61017;SDS011;48171;51.550;5.434;2023-02-12T07:09:20;35.45;;;14.27;;
61017;SDS011;48171;51.550;5.434;2023-02-12T07:11:45;29.38;;;13.30;;
61017;SDS011;48171;51.550;5.434;2023-02-12T07:14:14;28.88;;;12.82;;
61017;SDS011;48171;51.550;5.434;2023-02-12T07:16:40;30.95;;;13.48;;
61017;SDS011;48171;51.550;5.434;2023-02-12T07:19:06;25.05;;;12.63;;
61017;SDS011;48171;51.550;5.434;2023-02-12T07:21:31;41.13;;;13.10;;
61017;SDS011;48171;51.550;5.434;2023-02-12T07:23:57;30.77;;;14.05;;
61017;SDS011;48171;51.550;5.434;2023-02-12T07:26:23;35.25;;;14.45;;
61017;SDS011;48171;51.550;5.434;2023-02-12T07:28:49;29.20;;;13.65;;
61017;SDS011;48171;51.550;5.434;2023-02-12T07:31:16;38.35;;;15.38;;
61017;SDS011;48171;51.550;5.434;2023-02-12T07:33:43;33.03;;;14.38;;
61017;SDS011;48171;51.550;5.434;2023-02-12T07:36:10;41.72;;;17.35;;
61017;SDS011;48171;51.550;5.434;2023-02-12T07:38:38;41.42;;;18.63;;
61017;SDS011;48171;51.550;5.434;2023-02-12T07:43:36;38.95;;;16.13;;
61017;SDS011;48171;51.550;5.434;2023-02-12T07:46:10;34.85;;;15.18;;
61017;SDS011;48171;51.550;5.434;2023-02-12T07:48:38;31.92;;;14.43;;
61017;SDS011;48171;51.550;5.434;2023-02-12T07:51:07;36.45;;;15.63;;
61017;SDS011;48171;51.550;5.434;2023-02-12T07:53:35;37.08;;;15.18;;
61017;SDS011;48171;51.550;5.434;2023-02-12T07:58:32;36.78;;;14.85;;
61017;SDS011;48171;51.550;5.434;2023-02-12T08:00:58;32.05;;;13.75;;
61017;SDS011;48171;51.550;5.434;2023-02-12T08:03:23;31.20;;;13.57;;
61017;SDS011;48171;51.550;5.434;2023-02-12T08:05:49;33.97;;;14.30;;
61017;SDS011;48171;51.550;5.434;2023-02-12T08:08:14;32.67;;;14.75;;
61017;SDS011;48171;51.550;5.434;2023-02-12T08:10:39;35.63;;;15.05;;
61017;SDS011;48171;51.550;5.434;2023-02-12T08:13:04;39.53;;;15.65;;
61017;SDS011;48171;51.550;5.434;2023-02-12T08:15:30;37.95;;;15.25;;
61017;SDS011;48171;51.550;5.434;2023-02-12T08:17:55;36.20;;;15.32;;
61017;SDS011;48171;51.550;5.434;2023-02-12T08:20:20;38.90;;;16.10;;
61017;SDS011;48171;51.550;5.434;2023-02-12T08:22:45;35.65;;;15.25;;
61017;SDS011;48171;51.550;5.434;2023-02-12T08:25:11;35.78;;;15.50;;
61017;SDS011;48171;51.550;5.434;2023-02-12T08:27:36;38.42;;;15.10;;
61017;SDS011;48171;51.550;5.434;2023-02-12T08:30:01;33.58;;;14.50;;
61017;SDS011;48171;51.550;5.434;2023-02-12T08:32:26;35.55;;;14.98;;
61017;SDS011;48171;51.550;5.434;2023-02-12T08:34:53;44.13;;;17.30;;
61017;SDS011;48171;51.550;5.434;2023-02-12T08:37:18;44.90;;;17.00;;
61017;SDS011;48171;51.550;5.434;2023-02-12T08:39:44;43.10;;;18.17;;
61017;SDS011;48171;51.550;5.434;2023-02-12T08:42:09;46.42;;;18.38;;
61017;SDS011;48171;51.550;5.434;2023-02-12T08:44:34;51.53;;;17.27;;
61017;SDS011;48171;51.550;5.434;2023-02-12T08:47:01;46.25;;;19.83;;
61017;SDS011;48171;51.550;5.434;2023-02-12T08:49:29;44.55;;;18.23;;
61017;SDS011;48171;51.550;5.434;2023-02-12T08:51:56;45.03;;;18.83;;
61017;SDS011;48171;51.550;5.434;2023-02-12T08:54:24;38.80;;;17.25;;
61017;SDS011;48171;51.550;5.434;2023-02-12T08:56:55;39.70;;;15.95;;
61017;SDS011;48171;51.550;5.434;2023-02-12T08:59:21;44.30;;;16.63;;
61017;SDS011;48171;51.550;5.434;2023-02-12T09:01:48;43.05;;;16.80;;
61017;SDS011;48171;51.550;5.434;2023-02-12T09:04:20;40.47;;;16.75;;
61017;SDS011;48171;51.550;5.434;2023-02-12T09:06:47;46.70;;;17.42;;
61017;SDS011;48171;51.550;5.434;2023-02-12T09:09:14;39.00;;;16.73;;
61017;SDS011;48171;51.550;5.434;2023-02-12T09:11:39;43.65;;;17.02;;
61017;SDS011;48171;51.550;5.434;2023-02-12T09:14:07;46.20;;;17.88;;
61017;SDS011;48171;51.550;5.434;2023-02-12T09:16:35;44.17;;;18.90;;
61017;SDS011;48171;51.550;5.434;2023-02-12T09:19:02;44.55;;;19.08;;
61017;SDS011;48171;51.550;5.434;2023-02-12T09:21:27;48.47;;;18.55;;
61017;SDS011;48171;51.550;5.434;2023-02-12T09:23:55;41.40;;;16.77;;
61017;SDS011;48171;51.550;5.434;2023-02-12T09:26:21;44.40;;;17.77;;
61017;SDS011;48171;51.550;5.434;2023-02-12T09:28:49;45.65;;;17.58;;
61017;SDS011;48171;51.550;5.434;2023-02-12T09:31:18;47.70;;;18.27;;
61017;SDS011;48171;51.550;5.434;2023-02-12T09:33:50;41.60;;;17.48;;
61017;SDS011;48171;51.550;5.434;2023-02-12T09:36:15;40.33;;;17.58;;
61017;SDS011;48171;51.550;5.434;2023-02-12T09:38:42;45.50;;;19.05;;
61017;SDS011;48171;51.550;5.434;2023-02-12T09:41:32;44.42;;;18.48;;
61017;SDS011;48171;51.550;5.434;2023-02-12T09:47:14;42.90;;;17.83;;
61017;SDS011;48171;51.550;5.434;2023-02-12T09:52:54;46.60;;;18.05;;
61017;SDS011;48171;51.550;5.434;2023-02-12T09:55:24;43.17;;;17.45;;
61017;SDS011;48171;51.550;5.434;2023-02-12T09:57:53;43.72;;;18.27;;
61017;SDS011;48171;51.550;5.434;2023-02-12T10:00:28;48.47;;;18.25;;
61017;SDS011;48171;51.550;5.434;2023-02-12T10:03:01;44.97;;;17.63;;
61017;SDS011;48171;51.550;5.434;2023-02-12T10:05:35;42.95;;;18.23;;
61017;SDS011;48171;51.550;5.434;2023-02-12T10:13:50;49.80;;;19.98;;
61017;SDS011;48171;51.550;5.434;2023-02-12T10:21:36;49.17;;;20.58;;
61017;SDS011;48171;51.550;5.434;2023-02-12T10:24:54;51.95;;;20.67;;
61017;SDS011;48171;51.550;5.434;2023-02-12T10:27:53;49.88;;;20.83;;
61017;SDS011;48171;51.550;5.434;2023-02-12T10:30:23;51.42;;;19.27;;
61017;SDS011;48171;51.550;5.434;2023-02-12T10:33:25;44.28;;;18.10;;
61017;SDS011;48171;51.550;5.434;2023-02-12T10:36:01;45.55;;;17.48;;
61017;SDS011;48171;51.550;5.434;2023-02-12T10:41:04;40.75;;;17.02;;
61017;SDS011;48171;51.550;5.434;2023-02-12T10:43:29;46.38;;;18.45;;
61017;SDS011;48171;51.550;5.434;2023-02-12T10:45:54;45.22;;;18.88;;
61017;SDS011;48171;51.550;5.434;2023-02-12T10:48:20;47.03;;;18.27;;
61017;SDS011;48171;51.550;5.434;2023-02-12T10:53:32;41.63;;;17.63;;
61017;SDS011;48171;51.550;5.434;2023-02-12T10:56:13;52.88;;;19.55;;
61017;SDS011;48171;51.550;5.434;2023-02-12T10:58:49;50.03;;;18.88;;
61017;SDS011;48171;51.550;5.434;2023-02-12T11:03:50;48.42;;;20.23;;
61017;SDS011;48171;51.550;5.434;2023-02-12T11:06:26;46.13;;;19.08;;
61017;SDS011;48171;51.550;5.434;2023-02-12T11:08:54;47.67;;;18.85;;
61017;SDS011;48171;51.550;5.434;2023-02-12T11:11:27;45.47;;;17.83;;
61017;SDS011;48171;51.550;5.434;2023-02-12T11:16:45;51.90;;;19.65;;
61017;SDS011;48171;51.550;5.434;2023-02-12T11:19:20;47.25;;;18.33;;
61017;SDS011;48171;51.550;5.434;2023-02-12T11:21:48;46.17;;;18.30;;
61017;SDS011;48171;51.550;5.434;2023-02-12T11:24:21;48.97;;;17.90;;
61017;SDS011;48171;51.550;5.434;2023-02-12T11:27:07;49.47;;;18.70;;
61017;SDS011;48171;51.550;5.434;2023-02-12T11:29:41;47.95;;;18.60;;
61017;SDS011;48171;51.550;5.434;2023-02-12T11:32:08;43.90;;;18.92;;
61017;SDS011;48171;51.550;5.434;2023-02-12T11:34:40;47.30;;;18.40;;
61017;SDS011;48171;51.550;5.434;2023-02-12T11:37:09;46.63;;;18.05;;
61017;SDS011;48171;51.550;5.434;2023-02-12T11:39:40;47.33;;;19.10;;
61017;SDS011;48171;51.550;5.434;2023-02-12T11:42:16;49.35;;;18.50;;
61017;SDS011;48171;51.550;5.434;2023-02-12T11:44:50;47.10;;;18.95;;
61017;SDS011;48171;51.550;5.434;2023-02-12T11:47:22;46.63;;;18.40;;
61017;SDS011;48171;51.550;5.434;2023-02-12T11:49:55;45.78;;;18.88;;
61017;SDS011;48171;51.550;5.434;2023-02-12T11:52:27;50.22;;;18.00;;
61017;SDS011;48171;51.550;5.434;2023-02-12T11:55:00;45.72;;;17.70;;
61017;SDS011;48171;51.550;5.434;2023-02-12T11:57:45;46.35;;;17.60;;
61017;SDS011;48171;51.550;5.434;2023-02-12T12:02:38;46.30;;;17.67;;
61017;SDS011;48171;51.550;5.434;2023-02-12T12:05:18;45.90;;;17.88;;
61017;SDS011;48171;51.550;5.434;2023-02-12T12:07:53;49.47;;;17.58;;
61017;SDS011;48171;51.550;5.434;2023-02-12T12:13:09;44.40;;;17.58;;
61017;SDS011;48171;51.550;5.434;2023-02-12T12:15:41;45.90;;;17.65;;
61017;SDS011;48171;51.550;5.434;2023-02-12T12:23:54;53.28;;;19.30;;
61017;SDS011;48171;51.550;5.434;2023-02-12T12:26:25;50.03;;;18.90;;
61017;SDS011;48171;51.550;5.434;2023-02-12T12:31:29;49.05;;;17.63;;
61017;SDS011;48171;51.550;5.434;2023-02-12T12:34:06;49.03;;;18.10;;
61017;SDS011;48171;51.550;5.434;2023-02-12T12:47:26;45.70;;;17.13;;
61017;SDS011;48171;51.550;5.434;2023-02-12T12:58:36;44.38;;;17.67;;
61017;SDS011;48171;51.550;5.434;2023-02-12T13:15:28;50.05;;;18.70;;
61017;SDS011;48171;51.550;5.434;2023-02-12T13:23:14;46.85;;;17.17;;
61017;SDS011;48171;51.550;5.434;2023-02-12T13:28:12;46.28;;;17.85;;
61017;SDS011;48171;51.550;5.434;2023-02-12T13:30:47;50.28;;;18.77;;
61017;SDS011;48171;51.550;5.434;2023-02-12T13:33:16;45.67;;;18.58;;
61017;SDS011;48171;51.550;5.434;2023-02-12T13:35:46;48.78;;;18.48;;
61017;SDS011;48171;51.550;5.434;2023-02-12T13:38:20;46.15;;;17.98;;
61017;SDS011;48171;51.550;5.434;2023-02-12T13:40:51;49.30;;;18.25;;
61017;SDS011;48171;51.550;5.434;2023-02-12T13:45:54;49.63;;;18.02;;
61017;SDS011;48171;51.550;5.434;2023-02-12T13:48:43;47.28;;;18.35;;
61017;SDS011;48171;51.550;5.434;2023-02-12T13:51:30;47.15;;;17.95;;
61017;SDS011;48171;51.550;5.434;2023-02-12T13:56:50;47.55;;;17.02;;
61017;SDS011;48171;51.550;5.434;2023-02-12T14:01:55;45.75;;;18.10;;
61017;SDS011;48171;51.550;5.434;2023-02-12T14:04:29;49.38;;;17.38;;
61017;SDS011;48171;51.550;5.434;2023-02-12T14:06:57;48.22;;;17.45;;
61017;SDS011;48171;51.550;5.434;2023-02-12T14:09:30;45.25;;;18.35;;
61017;SDS011;48171;51.550;5.434;2023-02-12T14:11:59;49.10;;;18.50;;
61017;SDS011;48171;51.550;5.434;2023-02-12T14:14:36;45.92;;;17.30;;
61017;SDS011;48171;51.550;5.434;2023-02-12T14:24:54;45.72;;;15.98;;
61017;SDS011;48171;51.550;5.434;2023-02-12T14:38:07;50.53;;;18.08;;
61017;SDS011;48171;51.550;5.434;2023-02-12T14:40:53;48.15;;;18.23;;
61017;SDS011;48171;51.550;5.434;2023-02-12T14:46:52;49.88;;;16.65;;
61017;SDS011;48171;51.550;5.434;2023-02-12T14:49:33;47.70;;;18.83;;
61017;SDS011;48171;51.550;5.434;2023-02-12T14:52:26;47.08;;;18.05;;
61017;SDS011;48171;51.550;5.434;2023-02-12T14:59:50;47.53;;;18.90;;
61017;SDS011;48171;51.550;5.434;2023-02-12T15:02:23;53.05;;;19.80;;
61017;SDS011;48171;51.550;5.434;2023-02-12T15:04:51;52.22;;;19.27;;
61017;SDS011;48171;51.550;5.434;2023-02-12T15:07:27;49.47;;;18.47;;
61017;SDS011;48171;51.550;5.434;2023-02-12T15:10:47;45.20;;;17.02;;
61017;SDS011;48171;51.550;5.434;2023-02-12T15:13:23;50.90;;;18.63;;
61017;SDS011;48171;51.550;5.434;2023-02-12T15:18:29;52.05;;;18.52;;
61017;SDS011;48171;51.550;5.434;2023-02-12T15:21:06;54.00;;;21.58;;
61017;SDS011;48171;51.550;5.434;2023-02-12T15:26:31;52.88;;;20.38;;
61017;SDS011;48171;51.550;5.434;2023-02-12T15:28:58;52.30;;;20.77;;
61017;SDS011;48171;51.550;5.434;2023-02-12T15:31:26;70.43;;;30.73;;
61017;SDS011;48171;51.550;5.434;2023-02-12T15:33:53;64.85;;;29.48;;
61017;SDS011;48171;51.550;5.434;2023-02-12T15:36:21;54.03;;;21.25;;
61017;SDS011;48171;51.550;5.434;2023-02-12T15:38:50;47.28;;;19.70;;
61017;SDS011;48171;51.550;5.434;2023-02-12T15:41:24;61.70;;;24.35;;
61017;SDS011;48171;51.550;5.434;2023-02-12T15:44:24;68.65;;;28.27;;
61017;SDS011;48171;51.550;5.434;2023-02-12T15:46:53;72.00;;;31.10;;
61017;SDS011;48171;51.550;5.434;2023-02-12T15:49:19;59.15;;;26.17;;
61017;SDS011;48171;51.550;5.434;2023-02-12T15:51:46;52.95;;;22.08;;
61017;SDS011;48171;51.550;5.434;2023-02-12T15:54:12;51.70;;;19.48;;
61017;SDS011;48171;51.550;5.434;2023-02-12T15:56:43;50.38;;;19.42;;
61017;SDS011;48171;51.550;5.434;2023-02-12T15:59:14;52.47;;;18.75;;
61017;SDS011;48171;51.550;5.434;2023-02-12T16:01:50;51.47;;;19.02;;
61017;SDS011;48171;51.550;5.434;2023-02-12T16:04:17;53.70;;;20.08;;
61017;SDS011;48171;51.550;5.434;2023-02-12T16:06:42;48.45;;;18.80;;
61017;SDS011;48171;51.550;5.434;2023-02-12T16:11:40;54.63;;;19.67;;
61017;SDS011;48171;51.550;5.434;2023-02-12T16:14:14;55.10;;;18.88;;
61017;SDS011;48171;51.550;5.434;2023-02-12T16:17:26;51.38;;;18.67;;
61017;SDS011;48171;51.550;5.434;2023-02-12T17:04:23;64.47;;;23.17;;
61017;SDS011;48171;51.550;5.434;2023-02-12T17:06:56;62.17;;;23.27;;
61017;SDS011;48171;51.550;5.434;2023-02-12T17:09:47;62.67;;;23.02;;
61017;SDS011;48171;51.550;5.434;2023-02-12T17:12:20;54.40;;;21.65;;
61017;SDS011;48171;51.550;5.434;2023-02-12T17:14:49;62.40;;;21.27;;
61017;SDS011;48171;51.550;5.434;2023-02-12T17:17:28;58.25;;;21.15;;
61017;SDS011;48171;51.550;5.434;2023-02-12T17:19:56;57.13;;;22.25;;
61017;SDS011;48171;51.550;5.434;2023-02-12T17:22:30;63.22;;;26.17;;
61017;SDS011;48171;51.550;5.434;2023-02-12T17:25:00;58.80;;;22.50;;
61017;SDS011;48171;51.550;5.434;2023-02-12T17:27:37;58.63;;;22.75;;
61017;SDS011;48171;51.550;5.434;2023-02-12T17:40:12;61.08;;;21.55;;
61017;SDS011;48171;51.550;5.434;2023-02-12T17:42:40;61.03;;;21.83;;
61017;SDS011;48171;51.550;5.434;2023-02-12T17:49:08;70.07;;;23.35;;
61017;SDS011;48171;51.550;5.434;2023-02-12T17:52:05;65.88;;;25.08;;
61017;SDS011;48171;51.550;5.434;2023-02-12T17:54:36;70.30;;;26.98;;
61017;SDS011;48171;51.550;5.434;2023-02-12T17:57:05;65.55;;;26.58;;
61017;SDS011;48171;51.550;5.434;2023-02-12T17:59:39;64.38;;;24.58;;
61017;SDS011;48171;51.550;5.434;2023-02-12T18:02:06;62.15;;;22.75;;
61017;SDS011;48171;51.550;5.434;2023-02-12T18:04:38;59.60;;;22.33;;
61017;SDS011;48171;51.550;5.434;2023-02-12T18:07:03;63.47;;;22.70;;
61017;SDS011;48171;51.550;5.434;2023-02-12T18:09:36;59.97;;;22.60;;
61017;SDS011;48171;51.550;5.434;2023-02-12T18:12:03;61.10;;;21.38;;
61017;SDS011;48171;51.550;5.434;2023-02-12T18:17:58;55.65;;;20.77;;
61017;SDS011;48171;51.550;5.434;2023-02-12T18:23:31;71.32;;;28.25;;
61017;SDS011;48171;51.550;5.434;2023-02-12T18:26:10;66.57;;;25.05;;
61017;SDS011;48171;51.550;5.434;2023-02-12T18:28:55;61.40;;;24.48;;
61017;SDS011;48171;51.550;5.434;2023-02-12T18:31:31;62.33;;;22.35;;
61017;SDS011;48171;51.550;5.434;2023-02-12T18:34:03;60.97;;;23.25;;
61017;SDS011;48171;51.550;5.434;2023-02-12T18:36:35;62.10;;;22.77;;